sensor_id;sensor_type;location;lat;lon;timestamp;pressure;altitude;pressure_sealevel;temperature;humidity
11692;BME280;33659;42.672;23.354;2023-03-14T00:01:44;94557.09;;;7.17;40.70
11692;BME280;33659;42.672;23.354;2023-03-14T00:04:11;94542.28;;;7.17;40.74
11692;BME280;33659;42.672;23.354;2023-03-14T00:06:38;94548.69;;;7.20;40.68
11692;BME280;33659;42.672;23.354;2023-03-14T00:09:06;94547.94;;;7.19;40.88
11692;BME280;33659;42.672;23.354;2023-03-14T00:11:33;94542.28;;;7.26;40.80
11692;BME280;33659;42.672;23.354;2023-03-14T00:14:00;94540.31;;;7.23;40.92
11692;BME280;33659;42.672;23.354;2023-03-14T00:16:26;94534.19;;;7.27;40.90
11692;BME280;33659;42.672;23.354;2023-03-14T00:18:53;94537.28;;;7.29;40.90
11692;BME280;33659;42.672;23.354;2023-03-14T00:21:20;94521.38;;;7.31;40.97
11692;BME280;33659;42.672;23.354;2023-03-14T00:23:46;94517.84;;;7.27;41.11
11692;BME280;33659;42.672;23.354;2023-03-14T00:26:17;94518.91;;;7.26;41.37
11692;BME280;33659;42.672;23.354;2023-03-14T00:28:44;94515.41;;;7.30;41.21
11692;BME280;33659;42.672;23.354;2023-03-14T00:31:12;94507.78;;;7.34;41.21
11692;BME280;33659;42.672;23.354;2023-03-14T00:33:39;94508.69;;;7.29;41.16
11692;BME280;33659;42.672;23.354;2023-03-14T00:36:08;94507.78;;;7.34;41.32
11692;BME280;33659;42.672;23.354;2023-03-14T00:38:37;94502.88;;;7.24;41.61
11692;BME280;33659;42.672;23.354;2023-03-14T00:41:05;94505.63;;;7.27;41.74
11692;BME280;33659;42.672;23.354;2023-03-14T00:43:33;94493.88;;;7.30;41.69
11692;BME280;33659;42.672;23.354;2023-03-14T00:46:00;94492.66;;;7.36;41.71
11692;BME280;33659;42.672;23.354;2023-03-14T00:48:27;94495.13;;;7.41;41.64
11692;BME280;33659;42.672;23.354;2023-03-14T00:50:54;94491.47;;;7.42;41.63
11692;BME280;33659;42.672;23.354;2023-03-14T00:53:21;94492.53;;;7.50;41.58
11692;BME280;33659;42.672;23.354;2023-03-14T00:55:48;94490.25;;;7.48;41.61
11692;BME280;33659;42.672;23.354;2023-03-14T00:58:16;94489.00;;;7.46;41.58
11692;BME280;33659;42.672;23.354;2023-03-14T01:00:45;94496.34;;;7.44;41.62
11692;BME280;33659;42.672;23.354;2023-03-14T01:03:12;94487.34;;;7.41;41.84
11692;BME280;33659;42.672;23.354;2023-03-14T01:05:40;94487.78;;;7.43;41.94
11692;BME280;33659;42.672;23.354;2023-03-14T01:08:06;94489.31;;;7.44;41.96
11692;BME280;33659;42.672;23.354;2023-03-14T01:10:33;94485.78;;;7.40;41.94
11692;BME280;33659;42.672;23.354;2023-03-14T01:13:00;94473.59;;;7.41;42.12
11692;BME280;33659;42.672;23.354;2023-03-14T01:15:26;94480.31;;;7.42;41.96
11692;BME280;33659;42.672;23.354;2023-03-14T01:17:54;94473.59;;;7.41;42.21
11692;BME280;33659;42.672;23.354;2023-03-14T01:20:21;94476.31;;;7.44;42.14
11692;BME280;33659;42.672;23.354;2023-03-14T01:22:48;94469.59;;;7.43;42.28
11692;BME280;33659;42.672;23.354;2023-03-14T01:25:16;94461.50;;;7.36;42.23
11692;BME280;33659;42.672;23.354;2023-03-14T01:27:43;94459.81;;;7.31;42.54
11692;BME280;33659;42.672;23.354;2023-03-14T01:30:12;94466.22;;;7.25;42.66
11692;BME280;33659;42.672;23.354;2023-03-14T01:32:39;94457.03;;;7.19;43.05
11692;BME280;33659;42.672;23.354;2023-03-14T01:35:08;94457.97;;;7.23;42.76
11692;BME280;33659;42.672;23.354;2023-03-14T01:37:34;94457.78;;;7.20;42.80
11692;BME280;33659;42.672;23.354;2023-03-14T01:40:01;94449.38;;;7.14;43.31
11692;BME280;33659;42.672;23.354;2023-03-14T01:42:31;94448.00;;;7.08;43.23
11692;BME280;33659;42.672;23.354;2023-03-14T01:44:59;94425.94;;;6.71;43.59
11692;BME280;33659;42.672;23.354;2023-03-14T01:47:26;94444.84;;;6.71;43.79
11692;BME280;33659;42.672;23.354;2023-03-14T01:49:56;94446.19;;;6.60;44.18
11692;BME280;33659;42.672;23.354;2023-03-14T01:52:28;94440.66;;;6.53;44.56
11692;BME280;33659;42.672;23.354;2023-03-14T01:54:59;94439.88;;;6.53;44.90
11692;BME280;33659;42.672;23.354;2023-03-14T01:57:32;94433.94;;;6.52;44.78
11692;BME280;33659;42.672;23.354;2023-03-14T02:00:03;94433.50;;;6.59;45.31
11692;BME280;33659;42.672;23.354;2023-03-14T02:02:35;94428.31;;;6.59;44.95
11692;BME280;33659;42.672;23.354;2023-03-14T02:05:03;94432.16;;;6.30;45.48
11692;BME280;33659;42.672;23.354;2023-03-14T02:07:35;94434.91;;;6.03;45.90
11692;BME280;33659;42.672;23.354;2023-03-14T02:10:05;94432.31;;;5.80;47.13
11692;BME280;33659;42.672;23.354;2023-03-14T02:12:33;94440.81;;;5.58;47.11
11692;BME280;33659;42.672;23.354;2023-03-14T02:15:01;94435.13;;;5.34;48.41
11692;BME280;33659;42.672;23.354;2023-03-14T02:17:27;94426.22;;;5.26;48.50
11692;BME280;33659;42.672;23.354;2023-03-14T02:20:10;94424.41;;;5.27;49.23
11692;BME280;33659;42.672;23.354;2023-03-14T02:22:42;94430.59;;;5.39;49.61
11692;BME280;33659;42.672;23.354;2023-03-14T02:25:14;94422.88;;;5.62;49.60
11692;BME280;33659;42.672;23.354;2023-03-14T02:27:43;94426.53;;;5.83;49.32
11692;BME280;33659;42.672;23.354;2023-03-14T02:30:12;94426.81;;;6.04;48.85
11692;BME280;33659;42.672;23.354;2023-03-14T02:32:42;94421.84;;;6.16;48.58
11692;BME280;33659;42.672;23.354;2023-03-14T02:35:12;94419.66;;;6.32;47.88
11692;BME280;33659;42.672;23.354;2023-03-14T02:37:45;94423.81;;;6.42;47.81
11692;BME280;33659;42.672;23.354;2023-03-14T02:40:12;94425.41;;;6.51;47.51
11692;BME280;33659;42.672;23.354;2023-03-14T02:42:39;94431.38;;;6.61;47.28
11692;BME280;33659;42.672;23.354;2023-03-14T02:45:41;94431.53;;;6.64;46.80
11692;BME280;33659;42.672;23.354;2023-03-14T02:48:14;94436.88;;;6.68;46.55
11692;BME280;33659;42.672;23.354;2023-03-14T02:50:42;94433.84;;;6.66;46.17
11692;BME280;33659;42.672;23.354;2023-03-14T02:53:12;94427.81;;;6.48;46.58
11692;BME280;33659;42.672;23.354;2023-03-14T02:55:39;94429.75;;;6.42;46.66
11692;BME280;33659;42.672;23.354;2023-03-14T02:58:05;94436.19;;;6.45;46.74
11692;BME280;33659;42.672;23.354;2023-03-14T03:00:33;94438.78;;;6.45;47.42
11692;BME280;33659;42.672;23.354;2023-03-14T03:03:02;94438.63;;;6.41;47.75
11692;BME280;33659;42.672;23.354;2023-03-14T03:05:31;94436.47;;;6.43;47.88
11692;BME280;33659;42.672;23.354;2023-03-14T03:07:57;94434.38;;;6.45;47.87
11692;BME280;33659;42.672;23.354;2023-03-14T03:10:24;94443.69;;;6.46;47.83
11692;BME280;33659;42.672;23.354;2023-03-14T03:12:51;94436.66;;;6.47;47.96
11692;BME280;33659;42.672;23.354;2023-03-14T03:15:17;94437.09;;;6.40;47.85
11692;BME280;33659;42.672;23.354;2023-03-14T03:17:44;94429.09;;;6.28;48.12
11692;BME280;33659;42.672;23.354;2023-03-14T03:20:12;94429.94;;;6.15;48.11
11692;BME280;33659;42.672;23.354;2023-03-14T03:22:39;94432.19;;;6.08;47.81
11692;BME280;33659;42.672;23.354;2023-03-14T03:25:07;94434.19;;;6.11;47.73
11692;BME280;33659;42.672;23.354;2023-03-14T03:27:35;94436.50;;;6.12;47.64
11692;BME280;33659;42.672;23.354;2023-03-14T03:30:03;94435.25;;;6.10;47.58
11692;BME280;33659;42.672;23.354;2023-03-14T03:32:30;94432.66;;;6.10;47.50
11692;BME280;33659;42.672;23.354;2023-03-14T03:34:57;94431.31;;;6.12;47.80
11692;BME280;33659;42.672;23.354;2023-03-14T03:37:25;94427.22;;;6.20;47.21
11692;BME280;33659;42.672;23.354;2023-03-14T03:39:52;94411.34;;;6.13;47.45
11692;BME280;33659;42.672;23.354;2023-03-14T03:42:19;94424.22;;;6.27;47.21
11692;BME280;33659;42.672;23.354;2023-03-14T03:44:45;94428.03;;;6.29;47.21
11692;BME280;33659;42.672;23.354;2023-03-14T03:47:12;94425.91;;;6.31;46.81
11692;BME280;33659;42.672;23.354;2023-03-14T03:49:39;94430.50;;;6.34;46.94
11692;BME280;33659;42.672;23.354;2023-03-14T03:52:06;94434.81;;;6.39;46.76
11692;BME280;33659;42.672;23.354;2023-03-14T03:54:34;94448.41;;;6.44;46.77
11692;BME280;33659;42.672;23.354;2023-03-14T03:57:00;94443.81;;;6.41;46.72
11692;BME280;33659;42.672;23.354;2023-03-14T03:59:27;94438.47;;;6.38;46.34
11692;BME280;33659;42.672;23.354;2023-03-14T04:01:54;94446.69;;;6.40;45.99
11692;BME280;33659;42.672;23.354;2023-03-14T04:04:20;94443.66;;;6.38;45.78
11692;BME280;33659;42.672;23.354;2023-03-14T04:06:47;94447.28;;;6.37;46.28
11692;BME280;33659;42.672;23.354;2023-03-14T04:09:14;94443.00;;;6.32;46.57
11692;BME280;33659;42.672;23.354;2023-03-14T04:11:42;94435.81;;;6.29;47.05
11692;BME280;33659;42.672;23.354;2023-03-14T04:14:09;94441.72;;;6.21;47.59
11692;BME280;33659;42.672;23.354;2023-03-14T04:16:35;94436.53;;;6.21;47.77
11692;BME280;33659;42.672;23.354;2023-03-14T04:19:03;94432.56;;;6.23;48.08
11692;BME280;33659;42.672;23.354;2023-03-14T04:21:29;94430.63;;;6.29;47.71
11692;BME280;33659;42.672;23.354;2023-03-14T04:23:56;94422.38;;;6.27;47.88
11692;BME280;33659;42.672;23.354;2023-03-14T04:26:23;94419.91;;;6.22;48.06
11692;BME280;33659;42.672;23.354;2023-03-14T04:28:51;94415.19;;;6.24;48.07
11692;BME280;33659;42.672;23.354;2023-03-14T04:31:19;94410.34;;;6.00;48.45
11692;BME280;33659;42.672;23.354;2023-03-14T04:33:46;94412.16;;;5.55;49.63
11692;BME280;33659;42.672;23.354;2023-03-14T04:36:13;94417.94;;;5.15;50.80
11692;BME280;33659;42.672;23.354;2023-03-14T04:38:40;94410.00;;;4.98;51.80
11692;BME280;33659;42.672;23.354;2023-03-14T04:41:07;94414.22;;;4.94;51.97
11692;BME280;33659;42.672;23.354;2023-03-14T04:43:33;94405.88;;;4.97;51.57
11692;BME280;33659;42.672;23.354;2023-03-14T04:46:01;94394.06;;;5.05;51.47
11692;BME280;33659;42.672;23.354;2023-03-14T04:48:29;94402.75;;;5.23;51.31
11692;BME280;33659;42.672;23.354;2023-03-14T04:50:55;94402.41;;;5.38;51.15
11692;BME280;33659;42.672;23.354;2023-03-14T04:53:22;94395.19;;;5.49;50.86
11692;BME280;33659;42.672;23.354;2023-03-14T04:55:49;94390.06;;;5.57;50.62
11692;BME280;33659;42.672;23.354;2023-03-14T04:58:16;94389.72;;;5.72;50.39
11692;BME280;33659;42.672;23.354;2023-03-14T05:00:42;94391.97;;;5.88;50.42
11692;BME280;33659;42.672;23.354;2023-03-14T05:03:10;94388.38;;;5.97;50.05
11692;BME280;33659;42.672;23.354;2023-03-14T05:05:37;94389.78;;;6.04;49.89
11692;BME280;33659;42.672;23.354;2023-03-14T05:08:04;94393.00;;;6.09;49.07
11692;BME280;33659;42.672;23.354;2023-03-14T05:10:30;94392.59;;;6.16;48.62
11692;BME280;33659;42.672;23.354;2023-03-14T05:12:57;94388.00;;;6.13;48.11
11692;BME280;33659;42.672;23.354;2023-03-14T05:15:24;94381.75;;;6.14;47.87
11692;BME280;33659;42.672;23.354;2023-03-14T05:17:50;94383.41;;;6.10;47.91
11692;BME280;33659;42.672;23.354;2023-03-14T05:20:19;94386.00;;;6.10;48.36
11692;BME280;33659;42.672;23.354;2023-03-14T05:22:46;94382.22;;;6.16;48.09
11692;BME280;33659;42.672;23.354;2023-03-14T05:25:13;94388.78;;;6.22;48.41
11692;BME280;33659;42.672;23.354;2023-03-14T05:27:39;94387.78;;;6.32;48.74
11692;BME280;33659;42.672;23.354;2023-03-14T05:30:07;94386.88;;;6.36;48.75
11692;BME280;33659;42.672;23.354;2023-03-14T05:32:34;94385.22;;;6.40;48.80
11692;BME280;33659;42.672;23.354;2023-03-14T05:35:01;94388.13;;;6.39;48.80
11692;BME280;33659;42.672;23.354;2023-03-14T05:37:29;94382.31;;;6.42;48.71
11692;BME280;33659;42.672;23.354;2023-03-14T05:39:56;94381.75;;;6.54;48.57
11692;BME280;33659;42.672;23.354;2023-03-14T05:42:22;94379.94;;;6.63;48.46
11692;BME280;33659;42.672;23.354;2023-03-14T05:44:49;94383.47;;;6.75;48.28
11692;BME280;33659;42.672;23.354;2023-03-14T05:47:15;94380.91;;;6.84;47.83
11692;BME280;33659;42.672;23.354;2023-03-14T05:49:42;94386.28;;;6.96;47.92
11692;BME280;33659;42.672;23.354;2023-03-14T05:52:09;94383.69;;;7.05;47.53
11692;BME280;33659;42.672;23.354;2023-03-14T05:54:37;94389.06;;;7.09;47.15
11692;BME280;33659;42.672;23.354;2023-03-14T05:57:03;94383.41;;;7.15;46.83
11692;BME280;33659;42.672;23.354;2023-03-14T05:59:30;94379.75;;;7.25;46.74
11692;BME280;33659;42.672;23.354;2023-03-14T06:01:57;94379.59;;;7.30;46.45
11692;BME280;33659;42.672;23.354;2023-03-14T06:04:24;94387.22;;;7.18;46.75
11692;BME280;33659;42.672;23.354;2023-03-14T06:06:50;94371.66;;;7.09;47.00
11692;BME280;33659;42.672;23.354;2023-03-14T06:09:17;94382.34;;;7.25;47.09
11692;BME280;33659;42.672;23.354;2023-03-14T06:11:46;94383.28;;;7.29;47.21
11692;BME280;33659;42.672;23.354;2023-03-14T06:14:13;94374.22;;;7.26;46.87
11692;BME280;33659;42.672;23.354;2023-03-14T06:16:39;94381.09;;;7.14;46.95
11692;BME280;33659;42.672;23.354;2023-03-14T06:19:06;94379.28;;;7.05;47.27
11692;BME280;33659;42.672;23.354;2023-03-14T06:21:33;94366.28;;;6.97;47.20
11692;BME280;33659;42.672;23.354;2023-03-14T06:23:59;94378.06;;;7.03;47.20
11692;BME280;33659;42.672;23.354;2023-03-14T06:26:26;94390.59;;;7.10;46.64
11692;BME280;33659;42.672;23.354;2023-03-14T06:28:55;94388.13;;;6.96;47.41
11692;BME280;33659;42.672;23.354;2023-03-14T06:31:21;94380.63;;;6.94;46.89
11692;BME280;33659;42.672;23.354;2023-03-14T06:33:48;94391.78;;;7.03;47.02
11692;BME280;33659;42.672;23.354;2023-03-14T06:36:15;94393.50;;;7.17;46.51
11692;BME280;33659;42.672;23.354;2023-03-14T06:38:41;94389.81;;;7.26;46.49
11692;BME280;33659;42.672;23.354;2023-03-14T06:41:08;94390.59;;;7.27;46.54
11692;BME280;33659;42.672;23.354;2023-03-14T06:43:35;94379.44;;;7.18;46.53
11692;BME280;33659;42.672;23.354;2023-03-14T06:46:03;94368.09;;;6.88;46.76
11692;BME280;33659;42.672;23.354;2023-03-14T06:48:30;94377.72;;;6.87;47.46
11692;BME280;33659;42.672;23.354;2023-03-14T06:50:57;94374.22;;;6.83;47.79
11692;BME280;33659;42.672;23.354;2023-03-14T06:53:23;94372.69;;;6.91;47.71
11692;BME280;33659;42.672;23.354;2023-03-14T06:55:50;94359.41;;;7.01;47.52
11692;BME280;33659;42.672;23.354;2023-03-14T06:58:17;94360.50;;;7.09;46.52
11692;BME280;33659;42.672;23.354;2023-03-14T07:00:44;94366.16;;;7.02;46.48
11692;BME280;33659;42.672;23.354;2023-03-14T07:03:13;94362.63;;;6.98;47.03
11692;BME280;33659;42.672;23.354;2023-03-14T07:05:40;94348.88;;;7.15;46.31
11692;BME280;33659;42.672;23.354;2023-03-14T07:08:07;94334.53;;;7.17;46.16
11692;BME280;33659;42.672;23.354;2023-03-14T07:10:34;94341.72;;;7.29;46.13
11692;BME280;33659;42.672;23.354;2023-03-14T07:13:00;94323.69;;;7.24;45.80
11692;BME280;33659;42.672;23.354;2023-03-14T07:15:27;94348.91;;;7.41;44.93
11692;BME280;33659;42.672;23.354;2023-03-14T07:17:54;94340.50;;;7.35;45.36
11692;BME280;33659;42.672;23.354;2023-03-14T07:20:22;94340.91;;;7.46;45.05
11692;BME280;33659;42.672;23.354;2023-03-14T07:22:49;94343.53;;;7.54;44.73
11692;BME280;33659;42.672;23.354;2023-03-14T07:25:16;94340.91;;;7.46;44.23
11692;BME280;33659;42.672;23.354;2023-03-14T07:27:44;94352.06;;;7.46;44.76
11692;BME280;33659;42.672;23.354;2023-03-14T07:30:11;94344.41;;;7.58;44.99
11692;BME280;33659;42.672;23.354;2023-03-14T07:32:38;94341.66;;;7.64;44.84
11692;BME280;33659;42.672;23.354;2023-03-14T07:35:06;94340.72;;;7.77;44.47
11692;BME280;33659;42.672;23.354;2023-03-14T07:37:34;94337.34;;;7.85;44.07
11692;BME280;33659;42.672;23.354;2023-03-14T07:40:01;94332.72;;;7.99;43.83
11692;BME280;33659;42.672;23.354;2023-03-14T07:42:30;94324.16;;;7.99;43.98
11692;BME280;33659;42.672;23.354;2023-03-14T07:44:57;94326.75;;;7.99;43.92
11692;BME280;33659;42.672;23.354;2023-03-14T07:47:24;94326.28;;;7.97;43.63
11692;BME280;33659;42.672;23.354;2023-03-14T07:49:50;94322.59;;;8.06;43.34
11692;BME280;33659;42.672;23.354;2023-03-14T07:52:17;94315.97;;;8.18;42.96
11692;BME280;33659;42.672;23.354;2023-03-14T07:54:45;94320.34;;;8.34;42.75
11692;BME280;33659;42.672;23.354;2023-03-14T07:57:11;94323.38;;;8.45;42.41
11692;BME280;33659;42.672;23.354;2023-03-14T07:59:38;94304.28;;;8.32;42.88
11692;BME280;33659;42.672;23.354;2023-03-14T08:02:05;94314.84;;;8.36;42.65
11692;BME280;33659;42.672;23.354;2023-03-14T08:04:36;94311.47;;;8.44;42.65
11692;BME280;33659;42.672;23.354;2023-03-14T08:07:03;94315.03;;;8.60;42.49
11692;BME280;33659;42.672;23.354;2023-03-14T08:09:29;94298.06;;;8.54;42.40
11692;BME280;33659;42.672;23.354;2023-03-14T08:11:57;94317.47;;;8.65;42.38
11692;BME280;33659;42.672;23.354;2023-03-14T08:14:24;94311.59;;;8.68;42.71
11692;BME280;33659;42.672;23.354;2023-03-14T08:16:51;94302.84;;;8.73;42.16
11692;BME280;33659;42.672;23.354;2023-03-14T08:19:18;94322.16;;;8.93;42.02
11692;BME280;33659;42.672;23.354;2023-03-14T08:21:45;94318.47;;;8.94;41.63
11692;BME280;33659;42.672;23.354;2023-03-14T08:24:11;94316.34;;;8.96;41.65
11692;BME280;33659;42.672;23.354;2023-03-14T08:26:38;94317.97;;;9.01;41.56
11692;BME280;33659;42.672;23.354;2023-03-14T08:29:06;94321.28;;;9.10;41.10
11692;BME280;33659;42.672;23.354;2023-03-14T08:31:33;94306.09;;;9.12;40.61
11692;BME280;33659;42.672;23.354;2023-03-14T08:34:00;94301.47;;;9.17;40.88
11692;BME280;33659;42.672;23.354;2023-03-14T08:36:27;94300.28;;;9.27;40.51
11692;BME280;33659;42.672;23.354;2023-03-14T08:38:54;94299.78;;;9.34;40.47
11692;BME280;33659;42.672;23.354;2023-03-14T08:41:21;94287.16;;;9.23;40.08
11692;BME280;33659;42.672;23.354;2023-03-14T08:43:47;94293.69;;;9.30;39.68
11692;BME280;33659;42.672;23.354;2023-03-14T08:46:15;94286.44;;;9.35;39.16
11692;BME280;33659;42.672;23.354;2023-03-14T08:48:42;94284.38;;;9.29;39.31
11692;BME280;33659;42.672;23.354;2023-03-14T08:51:10;94277.41;;;9.33;39.88
11692;BME280;33659;42.672;23.354;2023-03-14T08:53:39;94274.19;;;9.36;39.60
11692;BME280;33659;42.672;23.354;2023-03-14T08:56:06;94270.53;;;9.49;39.59
11692;BME280;33659;42.672;23.354;2023-03-14T08:58:35;94248.91;;;9.48;39.94
11692;BME280;33659;42.672;23.354;2023-03-14T09:01:03;94260.38;;;9.81;39.31
11692;BME280;33659;42.672;23.354;2023-03-14T09:03:31;94262.13;;;9.89;39.33
11692;BME280;33659;42.672;23.354;2023-03-14T09:06:02;94255.81;;;9.90;38.98
11692;BME280;33659;42.672;23.354;2023-03-14T09:08:29;94253.44;;;9.97;38.85
11692;BME280;33659;42.672;23.354;2023-03-14T09:10:56;94249.72;;;9.98;38.69
11692;BME280;33659;42.672;23.354;2023-03-14T09:13:23;94244.44;;;10.07;38.24
11692;BME280;33659;42.672;23.354;2023-03-14T09:15:51;94234.00;;;10.07;38.21
11692;BME280;33659;42.672;23.354;2023-03-14T09:18:17;94229.63;;;10.11;37.96
11692;BME280;33659;42.672;23.354;2023-03-14T09:20:45;94228.00;;;10.18;37.63
11692;BME280;33659;42.672;23.354;2023-03-14T09:23:12;94222.03;;;10.18;37.07
11692;BME280;33659;42.672;23.354;2023-03-14T09:25:39;94226.72;;;10.24;36.77
11692;BME280;33659;42.672;23.354;2023-03-14T09:28:06;94220.22;;;10.30;36.34
11692;BME280;33659;42.672;23.354;2023-03-14T09:30:32;94206.16;;;10.35;36.66
11692;BME280;33659;42.672;23.354;2023-03-14T09:32:59;94202.91;;;10.38;36.13
11692;BME280;33659;42.672;23.354;2023-03-14T09:35:26;94202.13;;;10.50;36.40
11692;BME280;33659;42.672;23.354;2023-03-14T09:37:54;94194.44;;;10.69;36.34
11692;BME280;33659;42.672;23.354;2023-03-14T09:40:21;94189.50;;;10.80;36.01
11692;BME280;33659;42.672;23.354;2023-03-14T09:42:51;94180.09;;;10.91;35.86
11692;BME280;33659;42.672;23.354;2023-03-14T09:45:24;94181.16;;;11.02;35.69
11692;BME280;33659;42.672;23.354;2023-03-14T09:47:52;94176.63;;;11.15;35.27
11692;BME280;33659;42.672;23.354;2023-03-14T09:50:20;94171.59;;;11.22;34.78
11692;BME280;33659;42.672;23.354;2023-03-14T09:52:48;94168.03;;;11.30;34.69
11692;BME280;33659;42.672;23.354;2023-03-14T09:55:22;94163.41;;;11.39;34.73
11692;BME280;33659;42.672;23.354;2023-03-14T09:57:52;94155.66;;;11.59;34.55
11692;BME280;33659;42.672;23.354;2023-03-14T10:00:23;94156.06;;;11.77;34.13
11692;BME280;33659;42.672;23.354;2023-03-14T10:02:53;94153.53;;;11.96;33.98
11692;BME280;33659;42.672;23.354;2023-03-14T10:05:22;94148.09;;;12.20;34.29
11692;BME280;33659;42.672;23.354;2023-03-14T10:07:49;94143.22;;;12.38;33.80
11692;BME280;33659;42.672;23.354;2023-03-14T10:10:20;94136.53;;;12.60;34.36
11692;BME280;33659;42.672;23.354;2023-03-14T10:12:54;94132.75;;;12.77;34.21
11692;BME280;33659;42.672;23.354;2023-03-14T10:15:24;94132.88;;;12.84;34.26
11692;BME280;33659;42.672;23.354;2023-03-14T10:17:51;94126.78;;;12.99;34.05
11692;BME280;33659;42.672;23.354;2023-03-14T10:20:32;94105.53;;;13.05;34.18
11692;BME280;33659;42.672;23.354;2023-03-14T10:23:01;94100.69;;;13.07;34.32
11692;BME280;33659;42.672;23.354;2023-03-14T10:25:31;94095.28;;;13.19;34.41
11692;BME280;33659;42.672;23.354;2023-03-14T10:27:59;94080.91;;;13.09;34.62
11692;BME280;33659;42.672;23.354;2023-03-14T10:30:39;94089.38;;;13.22;34.97
11692;BME280;33659;42.672;23.354;2023-03-14T10:33:10;94081.16;;;13.23;35.14
11692;BME280;33659;42.672;23.354;2023-03-14T10:35:38;94079.47;;;13.35;34.64
11692;BME280;33659;42.672;23.354;2023-03-14T10:38:04;94074.16;;;13.54;34.74
11692;BME280;33659;42.672;23.354;2023-03-14T10:40:36;94072.97;;;13.78;34.14
11692;BME280;33659;42.672;23.354;2023-03-14T10:43:05;94060.44;;;13.94;34.29
11692;BME280;33659;42.672;23.354;2023-03-14T10:45:35;94054.38;;;13.90;34.68
11692;BME280;33659;42.672;23.354;2023-03-14T10:48:18;94042.38;;;13.89;34.42
11692;BME280;33659;42.672;23.354;2023-03-14T10:50:49;94038.63;;;13.90;34.49
11692;BME280;33659;42.672;23.354;2023-03-14T10:53:19;94028.06;;;13.83;34.36
11692;BME280;33659;42.672;23.354;2023-03-14T10:55:47;94024.22;;;13.77;34.60
11692;BME280;33659;42.672;23.354;2023-03-14T10:58:24;94012.00;;;13.88;34.56
11692;BME280;33659;42.672;23.354;2023-03-14T11:01:02;94003.53;;;14.02;34.34
11692;BME280;33659;42.672;23.354;2023-03-14T11:03:34;94004.50;;;14.20;33.99
11692;BME280;33659;42.672;23.354;2023-03-14T11:06:06;94002.91;;;14.46;33.84
11692;BME280;33659;42.672;23.354;2023-03-14T11:08:41;93994.25;;;14.45;33.20
11692;BME280;33659;42.672;23.354;2023-03-14T11:11:18;93983.91;;;14.56;33.35
11692;BME280;33659;42.672;23.354;2023-03-14T11:13:54;93981.13;;;14.82;33.01
11692;BME280;33659;42.672;23.354;2023-03-14T11:16:28;93977.53;;;15.01;32.81
11692;BME280;33659;42.672;23.354;2023-03-14T11:19:12;93965.59;;;15.14;32.75
11692;BME280;33659;42.672;23.354;2023-03-14T11:21:50;93967.69;;;15.46;32.13
11692;BME280;33659;42.672;23.354;2023-03-14T11:24:44;93960.66;;;15.64;32.19
11692;BME280;33659;42.672;23.354;2023-03-14T11:27:19;93936.28;;;15.78;31.07
11692;BME280;33659;42.672;23.354;2023-03-14T11:29:54;93930.63;;;15.73;31.31
11692;BME280;33659;42.672;23.354;2023-03-14T11:32:27;93913.28;;;15.64;31.57
11692;BME280;33659;42.672;23.354;2023-03-14T11:34:56;93920.91;;;15.91;31.51
11692;BME280;33659;42.672;23.354;2023-03-14T11:37:27;93919.84;;;16.20;31.15
11692;BME280;33659;42.672;23.354;2023-03-14T11:40:03;93903.72;;;16.58;30.76
11692;BME280;33659;42.672;23.354;2023-03-14T11:42:33;93899.22;;;16.90;29.99
11692;BME280;33659;42.672;23.354;2023-03-14T11:45:00;93892.44;;;17.07;29.88
11692;BME280;33659;42.672;23.354;2023-03-14T11:47:31;93906.66;;;17.49;29.48
11692;BME280;33659;42.672;23.354;2023-03-14T11:50:02;93896.38;;;17.83;28.95
11692;BME280;33659;42.672;23.354;2023-03-14T11:52:34;93888.72;;;18.06;28.80
11692;BME280;33659;42.672;23.354;2023-03-14T11:55:09;93883.28;;;18.28;28.26
11692;BME280;33659;42.672;23.354;2023-03-14T11:57:40;93878.97;;;18.52;28.02
11692;BME280;33659;42.672;23.354;2023-03-14T12:00:14;93869.44;;;18.69;28.64
11692;BME280;33659;42.672;23.354;2023-03-14T12:02:48;93875.84;;;18.67;28.82
11692;BME280;33659;42.672;23.354;2023-03-14T12:05:31;93849.81;;;18.62;27.76
11692;BME280;33659;42.672;23.354;2023-03-14T12:08:25;93849.88;;;18.55;27.31
11692;BME280;33659;42.672;23.354;2023-03-14T12:10:59;93855.25;;;18.45;27.76
11692;BME280;33659;42.672;23.354;2023-03-14T12:13:32;93842.81;;;18.38;27.69
11692;BME280;33659;42.672;23.354;2023-03-14T12:16:03;93838.28;;;18.42;27.55
11692;BME280;33659;42.672;23.354;2023-03-14T12:18:32;93832.13;;;18.56;27.65
11692;BME280;33659;42.672;23.354;2023-03-14T12:21:00;93821.78;;;18.72;27.02
11692;BME280;33659;42.672;23.354;2023-03-14T12:23:34;93823.66;;;18.75;26.94
11692;BME280;33659;42.672;23.354;2023-03-14T12:26:21;93819.94;;;18.65;26.94
11692;BME280;33659;42.672;23.354;2023-03-14T12:28:52;93806.75;;;18.62;26.96
11692;BME280;33659;42.672;23.354;2023-03-14T12:31:42;93805.50;;;18.77;26.93
11692;BME280;33659;42.672;23.354;2023-03-14T12:34:27;93802.13;;;19.11;27.27
11692;BME280;33659;42.672;23.354;2023-03-14T12:37:14;93782.03;;;19.47;26.64
11692;BME280;33659;42.672;23.354;2023-03-14T12:39:49;93791.47;;;19.18;25.77
11692;BME280;33659;42.672;23.354;2023-03-14T12:42:21;93786.63;;;18.75;26.55
11692;BME280;33659;42.672;23.354;2023-03-14T12:45:22;93787.81;;;18.67;26.64
11692;BME280;33659;42.672;23.354;2023-03-14T12:47:54;93782.13;;;18.72;27.13
11692;BME280;33659;42.672;23.354;2023-03-14T12:50:26;93781.88;;;18.56;27.35
11692;BME280;33659;42.672;23.354;2023-03-14T13:02:21;93757.41;;;18.45;26.58
11692;BME280;33659;42.672;23.354;2023-03-14T13:04:50;93753.56;;;18.53;26.41
11692;BME280;33659;42.672;23.354;2023-03-14T13:07:34;93727.88;;;18.53;26.76
11692;BME280;33659;42.672;23.354;2023-03-14T13:10:18;93753.94;;;18.92;26.43
11692;BME280;33659;42.672;23.354;2023-03-14T13:12:49;93731.25;;;18.95;26.06
11692;BME280;33659;42.672;23.354;2023-03-14T13:15:23;93734.66;;;18.92;26.38
11692;BME280;33659;42.672;23.354;2023-03-14T13:17:55;93718.41;;;18.93;26.18